createdAt,value
2023-03-02T00:01:40.288Z,75.56
2023-03-02T00:06:44.244Z,75.52
2023-03-02T00:11:48.327Z,75.44
2023-03-02T00:16:52.336Z,75.47
2023-03-02T00:21:56.488Z,75.32
2023-03-02T00:27:00.179Z,75.32
2023-03-02T00:32:07.117Z,75.16
2023-03-02T00:37:11.388Z,75.13
2023-03-02T00:42:15.074Z,75.11
2023-03-02T00:47:18.885Z,75.06
2023-03-02T00:52:22.750Z,75.32
2023-03-02T00:57:27.289Z,75.44
2023-03-02T01:02:32.673Z,75.49
2023-03-02T01:07:36.595Z,75.38
2023-03-02T01:12:40.984Z,75.14
2023-03-02T01:17:44.986Z,75.23
2023-03-02T01:22:48.832Z,74.82
2023-03-02T01:27:56.371Z,74.55
2023-03-02T01:33:00.113Z,74.51
2023-03-02T01:38:07.463Z,74.33
2023-03-02T01:43:17.053Z,74.22
2023-03-02T01:48:47.347Z,74.21
2023-03-02T01:54:01.466Z,74.01
2023-03-02T01:59:12.405Z,73.93
2023-03-02T02:12:46.649Z,74.24
2023-03-02T02:17:54.797Z,74.31
2023-03-02T02:23:49.247Z,74.35
2023-03-02T02:29:01.060Z,74.57
2023-03-02T02:34:23.055Z,74.61
2023-03-02T02:39:33.908Z,74.71
2023-03-02T02:44:37.949Z,74.92
2023-03-02T02:49:42.693Z,75.14
2023-03-02T02:54:51.622Z,75.61
2023-03-02T03:00:00.947Z,75.74
2023-03-02T03:05:05.705Z,75.69
2023-03-02T03:10:40.469Z,75.51
2023-03-02T03:15:44.501Z,75.65
2023-03-02T03:21:39.228Z,76.00
2023-03-02T03:26:43.870Z,76.11
2023-03-02T03:31:47.594Z,76.07
2023-03-02T03:37:41.602Z,76.14
2023-03-02T03:42:45.489Z,76.31
2023-03-02T03:47:49.330Z,76.60
2023-03-02T03:52:53.063Z,76.81
2023-03-02T03:58:22.571Z,76.78
2023-03-02T04:03:27.459Z,76.95
2023-03-02T04:08:31.271Z,77.12
2023-03-02T04:13:34.986Z,77.24
2023-03-02T04:18:38.809Z,77.08
2023-03-02T04:25:00.164Z,77.30
2023-03-02T04:30:05.345Z,77.53
2023-03-02T04:35:09.990Z,77.87
2023-03-02T04:40:15.802Z,78.07
2023-03-02T04:45:20.004Z,78.20
2023-03-02T04:50:24.216Z,78.44
2023-03-02T04:55:28.861Z,78.56
2023-03-02T05:00:34.656Z,78.61
2023-03-02T05:05:38.946Z,78.56
2023-03-02T05:10:42.852Z,78.71
2023-03-02T05:24:17.230Z,78.78
2023-03-02T05:29:21.534Z,78.80
2023-03-02T05:35:16.768Z,78.96
2023-03-02T06:01:33.026Z,79.41
2023-03-02T06:06:37.552Z,79.50
2023-03-02T06:18:49.842Z,79.58
2023-03-02T06:24:44.535Z,79.65
2023-03-02T06:29:48.517Z,79.57
2023-03-02T06:34:52.466Z,79.57
2023-03-02T06:39:58.255Z,79.61
2023-03-02T06:45:02.519Z,79.61
2023-03-02T06:50:07.565Z,79.72
2023-03-02T06:55:33.296Z,79.69
2023-03-02T07:01:54.964Z,79.57
2023-03-02T07:06:59.010Z,79.27
2023-03-02T07:18:56.230Z,79.22
2023-03-02T07:24:50.474Z,79.00
2023-03-02T07:30:21.584Z,78.90
2023-03-02T07:35:26.072Z,78.81
2023-03-02T07:40:55.261Z,78.84
2023-03-02T07:52:48.385Z,78.43
2023-03-02T07:57:52.543Z,78.23
2023-03-02T08:02:56.380Z,77.96
2023-03-02T08:08:00.196Z,78.03
2023-03-02T08:20:12.930Z,77.46
2023-03-02T08:25:17.099Z,77.20
2023-03-02T08:30:21.131Z,77.07
2023-03-02T08:35:26.756Z,77.55
2023-03-02T08:40:56.420Z,77.37
2023-03-02T08:47:23.070Z,77.20
2023-03-02T08:52:27.284Z,76.99
2023-03-02T08:57:48.090Z,77.00
2023-03-02T09:03:42.599Z,76.67
2023-03-02T09:16:20.689Z,75.90
2023-03-02T09:30:00.175Z,73.47
2023-03-02T09:35:55.571Z,72.25
2023-03-02T09:41:21.481Z,71.86
2023-03-02T09:53:44.906Z,69.14
2023-03-02T09:59:31.769Z,67.53
2023-03-02T10:12:26.476Z,65.11
2023-03-02T10:18:11.725Z,62.75
2023-03-02T10:23:35.366Z,61.08
2023-03-02T10:28:49.809Z,59.97
2023-03-02T10:34:28.390Z,58.83
2023-03-02T10:39:34.402Z,57.57
2023-03-02T10:44:46.229Z,55.58
2023-03-02T10:50:53.798Z,54.87
2023-03-02T11:14:38.972Z,51.19
2023-03-02T11:19:44.457Z,51.54
2023-03-02T11:24:58.971Z,50.56
2023-03-02T11:30:23.494Z,50.66
2023-03-02T11:35:44.461Z,50.14
2023-03-02T11:40:53.452Z,50.05
2023-03-02T11:49:19.537Z,49.11
2023-03-02T11:54:46.595Z,48.61
2023-03-02T11:59:52.881Z,48.79
2023-03-02T12:05:25.230Z,48.85
2023-03-02T12:10:44.012Z,48.92
2023-03-02T12:15:51.295Z,48.88
2023-03-02T12:21:39.543Z,48.44
2023-03-02T12:26:43.335Z,49.06
2023-03-02T12:31:56.077Z,48.53
2023-03-02T12:37:08.026Z,48.94
2023-03-02T12:42:44.280Z,48.81
2023-03-02T12:48:02.273Z,49.38
2023-03-02T12:53:17.798Z,49.38
2023-03-02T12:58:28.782Z,49.31
2023-03-02T13:03:32.705Z,48.29
2023-03-02T13:08:38.606Z,47.09
2023-03-02T13:13:45.670Z,46.36
2023-03-02T13:18:57.499Z,44.54
2023-03-02T13:24:02.951Z,43.37
2023-03-02T13:29:15.138Z,42.07
2023-03-02T13:34:33.516Z,40.38
2023-03-02T13:39:37.755Z,38.65
2023-03-02T13:44:41.668Z,36.77
2023-03-02T13:49:46.058Z,35.58
2023-03-02T13:54:50.194Z,38.65
2023-03-02T13:59:55.397Z,39.06
2023-03-02T14:04:59.408Z,36.57
2023-03-02T14:10:04.806Z,33.63
2023-03-02T14:15:15.680Z,32.33
2023-03-02T14:20:21.220Z,32.50
2023-03-02T14:25:25.181Z,32.15
2023-03-02T14:30:29.494Z,31.63
2023-03-02T14:35:33.758Z,33.63
2023-03-02T14:40:38.514Z,33.03
2023-03-02T14:45:42.438Z,32.26
2023-03-02T14:50:50.878Z,31.41
2023-03-02T14:55:55.321Z,31.68
2023-03-02T15:01:00.357Z,32.21
2023-03-02T15:06:08.052Z,32.40
2023-03-02T15:11:12.910Z,32.94
2023-03-02T15:16:17.934Z,33.74
2023-03-02T15:21:25.266Z,34.25
2023-03-02T15:26:29.697Z,36.58
2023-03-02T15:31:35.329Z,39.91
2023-03-02T15:36:41.783Z,42.57
2023-03-02T15:41:47.992Z,45.13
2023-03-02T15:46:58.946Z,47.42
2023-03-02T15:52:03.201Z,49.17
2023-03-02T15:57:11.625Z,50.42
2023-03-02T16:02:17.836Z,51.64
2023-03-02T16:07:21.637Z,52.76
2023-03-02T16:12:28.046Z,53.83
2023-03-02T16:17:33.530Z,54.78
2023-03-02T16:22:39.469Z,55.78
2023-03-02T16:27:48.649Z,56.71
2023-03-02T16:32:52.751Z,57.76
2023-03-02T16:37:56.700Z,59.14
2023-03-02T16:43:00.724Z,59.94
2023-03-02T16:48:06.564Z,60.37
2023-03-02T16:53:10.506Z,60.87
2023-03-02T16:58:14.774Z,61.63
2023-03-02T17:03:19.118Z,62.13
2023-03-02T17:08:23.016Z,62.58
2023-03-02T17:13:27.452Z,63.28
2023-03-02T17:18:35.449Z,64.32
2023-03-02T17:23:42.494Z,65.01
2023-03-02T17:28:46.847Z,66.29
2023-03-02T17:33:51.577Z,67.40
2023-03-02T17:38:55.298Z,68.14
2023-03-02T17:44:03.636Z,68.93
2023-03-02T17:49:07.378Z,69.26
2023-03-02T17:54:11.472Z,69.10
2023-03-02T17:59:16.263Z,69.50
2023-03-02T18:04:20.683Z,70.03
2023-03-02T18:09:24.687Z,70.37
2023-03-02T18:14:32.060Z,70.54
2023-03-02T18:19:37.849Z,70.42
2023-03-02T18:24:42.680Z,70.54
2023-03-02T18:29:46.891Z,70.76
2023-03-02T18:34:51.055Z,71.00
2023-03-02T18:39:56.464Z,70.93
2023-03-02T18:45:01.220Z,70.96
2023-03-02T18:50:06.022Z,71.08
2023-03-02T18:55:12.477Z,71.39
2023-03-02T19:00:27.369Z,71.70
2023-03-02T19:05:31.896Z,72.05
2023-03-02T19:10:39.047Z,72.57
2023-03-02T19:15:44.368Z,72.95
2023-03-02T19:20:51.564Z,73.54
2023-03-02T19:25:57.034Z,73.58
2023-03-02T19:31:09.698Z,73.53
2023-03-02T19:36:14.609Z,73.79
2023-03-02T19:41:21.529Z,73.88
2023-03-02T19:46:27.486Z,74.56
2023-03-02T19:51:33.100Z,74.63
2023-03-02T19:56:40.651Z,74.50
2023-03-02T20:01:44.990Z,74.31
2023-03-02T20:06:49.826Z,74.57
2023-03-02T20:11:54.673Z,75.03
2023-03-02T20:16:58.850Z,75.24
2023-03-02T20:22:04.072Z,75.38
2023-03-02T20:27:09.091Z,75.63
2023-03-02T20:32:14.888Z,75.84
2023-03-02T20:37:18.995Z,75.65
2023-03-02T20:42:25.490Z,75.68
2023-03-02T20:47:30.755Z,75.99
2023-03-02T20:52:35.333Z,75.71
2023-03-02T20:57:39.693Z,75.71
2023-03-02T21:02:46.147Z,75.52
2023-03-02T21:07:52.939Z,75.77
2023-03-02T21:12:56.784Z,76.15
2023-03-02T21:18:03.805Z,76.35
2023-03-02T21:23:11.491Z,76.41
2023-03-02T21:28:15.518Z,76.36
2023-03-02T21:33:19.455Z,77.08
2023-03-02T21:38:23.614Z,77.68
2023-03-02T21:43:27.637Z,77.82
2023-03-02T21:48:32.404Z,77.63
2023-03-02T21:53:38.971Z,77.33
2023-03-02T21:58:43.186Z,77.00
2023-03-02T22:03:47.108Z,77.05
2023-03-02T22:08:51.963Z,76.78
2023-03-02T22:14:00.948Z,76.71
2023-03-02T22:19:27.332Z,76.57
2023-03-02T22:24:34.106Z,77.06
2023-03-02T22:29:48.122Z,77.36
2023-03-02T22:34:56.306Z,77.16
2023-03-02T22:40:27.817Z,77.11
2023-03-02T22:45:31.951Z,77.16
2023-03-02T22:50:37.423Z,77.36
2023-03-02T22:55:43.690Z,77.86
2023-03-02T23:00:48.958Z,78.02
2023-03-02T23:05:53.597Z,77.85
2023-03-02T23:10:59.735Z,77.97
2023-03-02T23:16:26.248Z,77.83
2023-03-02T23:21:42.236Z,78.15
2023-03-02T23:26:46.182Z,78.43
2023-03-02T23:31:50.819Z,78.50
2023-03-02T23:36:54.556Z,78.76
2023-03-02T23:41:58.444Z,79.07
2023-03-02T23:47:02.411Z,79.12
2023-03-02T23:52:06.349Z,79.21
2023-03-02T23:57:10.368Z,79.23
